Time;durP1;ratioP1;P1;durP2;ratioP2;P2;SDS_P1;SDS_P2;PMS_P1;PMS_P2;Temp;Humidity;BMP_temperature;BMP_pressure;BME280_temperature;BME280_humidity;BME280_pressure;Samples;Min_cycle;Max_cycle;Signal;HPM_P1;HPM_P2
2022/01/23 00:01:41;;;;;;;13.63;6.28;;;-3.10;99.90;;;;;;5078148;28;20051;-73
2022/01/23 00:04:07;;;;;;;10.98;5.93;;;-3.10;99.90;;;;;;5072336;28;20037;-74
2022/01/23 00:06:33;;;;;;;14.45;6.10;;;-3.10;99.90;;;;;;5073594;28;20027;-73
2022/01/23 00:08:59;;;;;;;14.70;7.38;;;-3.00;99.90;;;;;;5086500;28;20101;-73
2022/01/23 00:11:27;;;;;;;12.93;6.90;;;-3.10;99.90;;;;;;5071291;28;20488;-74
2022/01/23 00:19:07;;;;;;;12.43;6.05;;;-3.00;99.90;;;;;;5068497;28;20426;-73
2022/01/23 00:21:34;;;;;;;10.80;6.13;;;-3.00;99.90;;;;;;5053106;28;20100;-73
2022/01/23 00:31:54;;;;;;;14.00;6.72;;;-2.90;99.90;;;;;;5052848;28;20102;-73
2022/01/23 00:34:20;;;;;;;13.40;6.13;;;-2.90;99.90;;;;;;5053424;28;20033;-73
2022/01/23 00:36:46;;;;;;;16.17;5.93;;;-2.90;99.90;;;;;;5052450;28;20057;-72
2022/01/23 00:39:12;;;;;;;13.63;6.55;;;-3.00;99.90;;;;;;5053180;28;20323;-73
2022/01/23 00:41:38;;;;;;;11.77;5.85;;;-3.00;99.90;;;;;;5052887;28;20044;-72
2022/01/23 00:44:04;;;;;;;11.00;5.97;;;-3.00;99.90;;;;;;5052708;28;20041;-74
2022/01/23 00:46:35;;;;;;;11.68;5.72;;;-3.10;99.90;;;;;;5052541;28;20701;-72
2022/01/23 00:51:34;;;;;;;14.90;8.32;;;-3.10;99.90;;;;;;5052689;28;20036;-73
2022/01/23 00:54:02;;;;;;;12.77;6.85;;;-3.20;99.90;;;;;;5052821;28;20033;-73
2022/01/23 00:56:29;;;;;;;13.23;7.70;;;-3.20;99.90;;;;;;5058305;28;20151;-73
2022/01/23 00:58:55;;;;;;;15.27;6.95;;;-3.10;99.90;;;;;;5072598;28;20043;-73
2022/01/23 01:01:21;;;;;;;12.57;5.43;;;-3.20;99.90;;;;;;5072901;28;20028;-74
2022/01/23 01:03:48;;;;;;;11.87;6.23;;;-3.20;99.90;;;;;;5072518;28;20052;-73
2022/01/23 01:06:14;;;;;;;12.40;6.38;;;-3.20;99.90;;;;;;5061621;28;20483;-73
2022/01/23 01:08:41;;;;;;;13.13;5.97;;;-3.10;99.90;;;;;;5087690;28;20035;-74
2022/01/23 01:13:56;;;;;;;13.63;6.97;;;-3.20;99.90;;;;;;5071924;28;20049;-75
2022/01/23 01:32:49;;;;;;;13.57;6.72;;;-3.10;99.90;;;;;;5051811;28;20368;-73
2022/01/23 01:35:26;;;;;;;12.98;6.97;;;-3.00;99.90;;;;;;5051598;28;20120;-73
2022/01/23 01:37:52;;;;;;;17.08;7.45;;;-3.00;99.90;;;;;;5051699;28;20374;-72
2022/01/23 01:40:20;;;;;;;17.27;8.07;;;-3.00;99.90;;;;;;5050303;28;20112;-73
2022/01/23 01:42:45;;;;;;;11.98;7.22;;;-3.00;99.90;;;;;;5059619;28;20086;-73
2022/01/23 01:45:12;;;;;;;14.23;7.55;;;-3.00;99.90;;;;;;5087241;28;20028;-73
2022/01/23 01:47:46;;;;;;;19.73;17.90;;;-3.00;99.90;;;;;;5071475;28;20024;-73
2022/01/23 01:50:11;;;;;;;14.93;7.57;;;-3.00;99.90;;;;;;5071213;28;20131;-73
2022/01/23 01:52:37;;;;;;;19.00;9.80;;;-3.00;99.90;;;;;;5054240;28;20108;-74
2022/01/23 01:55:08;;;;;;;14.27;8.43;;;-2.90;99.90;;;;;;5051542;28;20270;-73
2022/01/23 01:57:40;;;;;;;16.75;8.90;;;-2.90;99.90;;;;;;5051459;28;20469;-74
2022/01/23 02:00:38;;;;;;;15.77;8.88;;;-2.90;99.90;;;;;;5053966;28;20035;-74
2022/01/23 02:08:28;;;;;;;17.63;8.70;;;-2.90;99.90;;;;;;5071407;28;20047;-73
2022/01/23 02:11:05;;;;;;;15.20;8.07;;;-2.90;99.90;;;;;;5060954;28;20068;-73
2022/01/23 02:14:26;;;;;;;17.50;8.43;;;-2.90;99.90;;;;;;5066122;28;20031;-73
2022/01/23 02:57:09;;;;;;;12.02;6.07;;;-2.80;99.90;;;;;;5070777;28;20036;-73
2022/01/23 02:59:39;;;;;;;9.50;5.55;;;-2.80;99.90;;;;;;5086103;28;20037;-74
2022/01/23 03:04:47;;;;;;;12.98;5.75;;;-2.80;99.90;;;;;;5062263;28;20052;-74
2022/01/23 03:14:43;;;;;;;12.02;6.07;;;-2.90;99.90;;;;;;5069785;28;20388;-73
2022/01/23 03:29:00;;;;;;;12.10;6.00;;;-2.80;99.90;;;;;;5051465;28;20087;-74
2022/01/23 03:31:28;;;;;;;11.93;6.75;;;-2.80;99.90;;;;;;5053776;28;20082;-73
2022/01/23 03:33:54;;;;;;;11.23;6.88;;;-2.80;99.90;;;;;;5062470;28;20020;-73
2022/01/23 03:36:20;;;;;;;14.17;5.77;;;-2.50;99.90;;;;;;5073906;28;20039;-72
2022/01/23 03:38:46;;;;;;;12.90;6.28;;;-2.90;99.90;;;;;;5074217;28;20033;-72
2022/01/23 03:41:12;;;;;;;13.02;6.28;;;-2.90;99.90;;;;;;5089374;28;20060;-74
2022/01/23 03:43:40;;;;;;;14.05;5.68;;;-2.90;99.90;;;;;;5073544;28;20116;-73
2022/01/23 03:46:45;;;;;;;13.88;6.15;;;-2.90;99.90;;;;;;5073778;28;20464;-73
2022/01/23 03:51:52;;;;;;;11.93;6.35;;;-3.00;99.90;;;;;;5064084;28;20641;-73
2022/01/23 03:54:18;;;;;;;13.03;5.90;;;-3.10;99.90;;;;;;5053402;28;20112;-73
2022/01/23 03:56:44;;;;;;;12.63;6.83;;;-3.10;99.90;;;;;;5053573;28;20269;-73
2022/01/23 03:59:10;;;;;;;13.35;6.60;;;-3.10;99.90;;;;;;5053907;28;20289;-73
2022/01/23 04:01:36;;;;;;;14.37;6.73;;;-3.20;99.90;;;;;;5053964;28;20037;-73
2022/01/23 04:04:06;;;;;;;8.70;4.43;;;-3.20;99.90;;;;;;5069685;28;20636;-73
2022/01/23 04:06:33;;;;;;;13.57;5.03;;;-3.20;99.90;;;;;;5073267;28;20762;-73
2022/01/23 04:08:59;;;;;;;10.05;5.03;;;-3.30;99.90;;;;;;5073554;28;20041;-73
2022/01/23 04:11:24;;;;;;;10.77;5.70;;;-3.40;99.90;;;;;;5068953;28;20036;-73
2022/01/23 04:14:01;;;;;;;12.60;5.65;;;-3.50;99.90;;;;;;5068384;28;20519;-73
2022/01/23 04:59:40;;;;;;;12.52;5.85;;;-4.20;99.90;;;;;;5052472;28;20059;-72
2022/01/23 05:04:51;;;;;;;13.25;6.15;;;-4.20;99.90;;;;;;5053239;28;20112;-72
2022/01/23 05:07:18;;;;;;;14.90;6.13;;;-4.30;99.90;;;;;;5051696;28;20056;-73
2022/01/23 05:09:44;;;;;;;15.25;6.75;;;-4.30;99.90;;;;;;5050758;28;20041;-73
2022/01/23 05:12:12;;;;;;;14.60;7.18;;;-4.30;99.90;;;;;;5052020;28;20029;-73
2022/01/23 05:14:46;;;;;;;13.40;6.93;;;-4.30;99.90;;;;;;5052191;28;20116;-72
2022/01/23 05:17:14;;;;;;;13.40;6.60;;;-4.30;99.90;;;;;;5051349;28;20420;-73
2022/01/23 05:19:41;;;;;;;12.88;7.07;;;-4.40;99.90;;;;;;5052464;28;20033;-72
2022/01/23 05:22:26;;;;;;;16.70;7.72;;;-4.30;99.90;;;;;;5051949;28;20036;-72
2022/01/23 05:27:21;;;;;;;;;;;-4.30;99.90;;;;;;5072335;28;20349;-73
2022/01/23 05:29:46;;;;;;;13.05;6.35;;;-4.40;99.90;;;;;;5071897;28;19912;-73
2022/01/23 05:32:13;;;;;;;15.03;6.67;;;-4.40;99.90;;;;;;5071523;28;20025;-73
2022/01/23 05:34:39;;;;;;;14.02;7.03;;;-4.40;99.90;;;;;;5071381;28;20151;-73
2022/01/23 05:37:05;;;;;;;;;;;-4.40;99.90;;;;;;5071712;28;20107;-73
2022/01/23 05:39:33;;;;;;;15.05;6.20;;;-4.50;99.90;;;;;;5071896;28;20040;-73
2022/01/23 05:42:07;;;;;;;14.30;6.93;;;-4.50;99.90;;;;;;5069493;28;20048;-73
2022/01/23 05:44:38;;;;;;;13.60;6.80;;;-4.50;99.90;;;;;;5051766;28;20036;-73
2022/01/23 05:47:05;;;;;;;13.50;6.80;;;-4.60;99.90;;;;;;5050022;28;20035;-73
2022/01/23 05:49:31;;;;;;;14.45;7.22;;;-4.60;99.90;;;;;;5050325;28;20489;-72
2022/01/23 05:51:57;;;;;;;11.85;7.18;;;-4.60;99.90;;;;;;5059031;28;20035;-73
2022/01/23 05:54:23;;;;;;;15.75;7.28;;;-4.50;99.90;;;;;;5086268;28;20123;-73
2022/01/23 05:56:49;;;;;;;15.60;7.90;;;-4.50;99.90;;;;;;5071039;28;20146;-73
2022/01/23 05:59:16;;;;;;;16.17;7.32;;;-4.60;99.90;;;;;;5069808;28;20072;-71
2022/01/23 06:01:43;;;;;;;14.55;6.00;;;-4.60;99.90;;;;;;5071250;28;20029;-73
2022/01/23 06:04:09;;;;;;;12.85;6.80;;;-4.80;99.90;;;;;;5087027;28;20036;-74
2022/01/23 06:06:35;;;;;;;17.30;7.43;;;-4.60;99.90;;;;;;5070772;28;20037;-74
2022/01/23 06:09:00;;;;;;;12.05;6.35;;;-4.50;99.90;;;;;;5071732;28;20037;-74
2022/01/23 06:11:26;;;;;;;14.40;7.00;;;-4.50;99.90;;;;;;5071135;28;20024;-74
2022/01/23 06:13:52;;;;;;;15.57;7.00;;;-4.50;99.90;;;;;;5071700;28;20052;-73
2022/01/23 06:16:18;;;;;;;17.40;8.10;;;-4.50;99.90;;;;;;5074326;28;20029;-74
2022/01/23 06:18:45;;;;;;;15.98;7.18;;;-4.60;99.90;;;;;;5058565;28;20279;-73
2022/01/23 06:21:13;;;;;;;17.15;8.55;;;-4.60;99.90;;;;;;5068727;28;20067;-73
2022/01/23 06:23:39;;;;;;;15.35;7.55;;;-4.60;99.90;;;;;;5051027;28;20048;-72
2022/01/23 06:26:05;;;;;;;17.17;6.73;;;-4.70;99.90;;;;;;5049880;28;20040;-73
2022/01/23 06:28:36;;;;;;;18.88;8.25;;;-4.70;99.90;;;;;;5051004;28;20036;-73
2022/01/23 06:31:02;;;;;;;16.20;7.90;;;-4.60;99.90;;;;;;5051258;28;20033;-73
2022/01/23 06:33:29;;;;;;;18.17;8.13;;;-4.70;99.90;;;;;;5066309;28;20087;-73
2022/01/23 06:35:55;;;;;;;15.23;8.55;;;-4.70;99.90;;;;;;5050952;28;20036;-72
2022/01/23 06:38:21;;;;;;;16.45;7.90;;;-4.70;99.90;;;;;;5051040;28;20415;-72
2022/01/23 06:40:46;;;;;;;15.55;7.78;;;-4.80;99.90;;;;;;5066373;28;20041;-73
2022/01/23 06:43:12;;;;;;;13.83;7.47;;;-4.70;99.90;;;;;;5058161;28;20523;-74
2022/01/23 06:45:38;;;;;;;13.32;6.25;;;-4.70;99.90;;;;;;5071161;28;20256;-73
2022/01/23 06:48:04;;;;;;;17.45;7.38;;;-4.70;99.90;;;;;;5070919;28;20051;-73
2022/01/23 06:50:29;;;;;;;17.75;7.43;;;-4.70;99.90;;;;;;5070818;28;20060;-73
2022/01/23 06:52:55;;;;;;;15.17;7.77;;;-4.60;99.90;;;;;;5060323;28;20359;-73
2022/01/23 06:55:21;;;;;;;14.90;7.28;;;-4.60;99.90;;;;;;5069554;28;20028;-73
2022/01/23 06:57:46;;;;;;;16.33;8.10;;;-4.60;99.90;;;;;;5086137;28;20516;-73
2022/01/23 07:00:13;;;;;;;15.60;8.57;;;-4.60;99.90;;;;;;5071915;28;20023;-73
2022/01/23 07:02:38;;;;;;;18.08;7.88;;;-4.70;99.90;;;;;;5062516;28;20047;-73
2022/01/23 07:05:04;;;;;;;18.00;8.30;;;-4.70;99.90;;;;;;5054723;28;20036;-71
2022/01/23 07:07:30;;;;;;;16.55;8.60;;;-4.70;99.90;;;;;;5054385;28;20077;-73
2022/01/23 07:09:56;;;;;;;14.05;6.20;;;-4.70;99.90;;;;;;5054837;28;20061;-73
2022/01/23 07:12:22;;;;;;;17.98;7.45;;;-4.60;99.90;;;;;;5053963;28;20037;-72
2022/01/23 07:14:47;;;;;;;15.23;7.70;;;-4.60;99.90;;;;;;5069644;28;20116;-72
2022/01/23 07:17:13;;;;;;;17.47;7.90;;;-4.60;99.90;;;;;;5054485;28;20257;-73
2022/01/23 07:19:39;;;;;;;19.90;8.07;;;-4.50;99.90;;;;;;5055394;28;20738;-73
2022/01/23 07:22:05;;;;;;;15.53;8.47;;;-4.50;99.90;;;;;;5073052;28;20097;-73
2022/01/23 07:24:31;;;;;;;18.95;8.40;;;-4.40;99.90;;;;;;5090441;28;20292;-73
2022/01/23 07:26:59;;;;;;;10.82;5.88;;;-4.30;99.90;;;;;;5066310;28;20028;-74
2022/01/23 07:29:25;;;;;;;17.85;8.55;;;-4.30;99.90;;;;;;5069847;28;20045;-74
2022/01/23 07:31:59;;;;;;;18.08;8.50;;;-4.30;99.90;;;;;;5057585;28;20090;-72
2022/01/23 07:34:26;;;;;;;21.20;9.25;;;-4.20;99.90;;;;;;5069602;28;20387;-72
2022/01/23 07:36:52;;;;;;;18.45;8.85;;;-4.10;99.90;;;;;;5054263;28;20025;-73
2022/01/23 07:39:18;;;;;;;16.20;8.70;;;-4.20;99.90;;;;;;5069710;28;20091;-71
2022/01/23 07:41:43;;;;;;;13.65;7.25;;;-4.20;99.90;;;;;;5053973;28;20730;-73
2022/01/23 07:44:09;;;;;;;16.25;8.05;;;-4.10;99.90;;;;;;5069705;28;20047;-72
2022/01/23 07:46:35;;;;;;;18.73;8.30;;;-4.10;99.90;;;;;;5054212;28;20028;-73
2022/01/23 07:49:01;;;;;;;21.45;9.60;;;-4.00;99.90;;;;;;5056866;28;20071;-73
2022/01/23 07:51:27;;;;;;;19.33;8.70;;;-3.90;99.90;;;;;;5069168;28;20127;-73
2022/01/23 07:53:53;;;;;;;18.87;8.77;;;-3.80;99.90;;;;;;5053797;28;20397;-72
2022/01/23 07:56:18;;;;;;;15.10;8.60;;;-3.60;99.90;;;;;;5068648;28;20311;-74
2022/01/23 07:58:44;;;;;;;17.20;7.65;;;-3.60;99.90;;;;;;5054107;28;20051;-73
2022/01/23 08:01:10;;;;;;;14.27;7.83;;;-3.50;99.90;;;;;;5052192;28;20043;-73
2022/01/23 08:03:36;;;;;;;18.98;8.75;;;-3.60;99.90;;;;;;5053602;28;20768;-73
2022/01/23 08:06:02;;;;;;;18.70;8.03;;;-3.60;99.90;;;;;;5053738;28;20037;-74
2022/01/23 08:08:27;;;;;;;18.67;8.77;;;-3.60;99.90;;;;;;5053828;28;20452;-73
2022/01/23 08:10:53;;;;;;;19.23;8.43;;;-3.60;99.90;;;;;;5053432;28;20392;-72
2022/01/23 08:13:20;;;;;;;15.87;8.13;;;-3.60;99.90;;;;;;5052796;28;20037;-72
2022/01/23 08:15:45;;;;;;;;;;;-3.70;99.90;;;;;;5054096;28;20254;-74
2022/01/23 08:18:11;;;;;;;14.93;7.00;;;-3.70;99.90;;;;;;5053420;28;19926;-73
2022/01/23 08:20:37;;;;;;;16.33;7.50;;;-3.70;99.90;;;;;;5053614;28;20037;-73
2022/01/23 08:23:04;;;;;;;14.77;7.70;;;-3.60;99.90;;;;;;5053370;28;20047;-72
2022/01/23 08:25:31;;;;;;;19.58;9.73;;;-3.70;99.90;;;;;;5056240;28;20028;-73
2022/01/23 08:27:57;;;;;;;15.30;7.53;;;-3.50;99.90;;;;;;5072877;28;20036;-73
2022/01/23 08:30:24;;;;;;;16.35;8.57;;;-3.60;99.90;;;;;;5073374;28;20024;-73
2022/01/23 08:32:50;;;;;;;15.32;8.05;;;-3.50;99.90;;;;;;5053572;28;20052;-73
2022/01/23 08:35:16;;;;;;;15.27;7.15;;;-3.40;99.90;;;;;;5053018;28;20100;-73
2022/01/23 08:37:43;;;;;;;17.13;8.15;;;-3.30;99.90;;;;;;5051453;28;20029;-73
2022/01/23 08:40:19;;;;;;;13.48;6.13;;;-3.30;99.90;;;;;;5053059;28;20052;-73
2022/01/23 08:42:45;;;;;;;15.25;7.68;;;-3.30;99.90;;;;;;5052362;28;20025;-73
2022/01/23 08:45:11;;;;;;;20.25;8.52;;;-3.20;99.90;;;;;;5052615;28;20029;-74
2022/01/23 08:47:37;;;;;;;15.75;7.63;;;-3.20;99.90;;;;;;5052249;28;20139;-73
2022/01/23 08:50:04;;;;;;;13.93;7.32;;;-3.10;99.90;;;;;;5051839;28;20053;-73
2022/01/23 08:52:29;;;;;;;16.05;7.47;;;-3.00;99.90;;;;;;5052256;28;20718;-73
2022/01/23 08:54:56;;;;;;;16.77;7.65;;;-2.90;99.90;;;;;;5067499;28;20029;-73
2022/01/23 08:57:23;;;;;;;15.98;7.45;;;-2.80;99.90;;;;;;5052497;28;20037;-74
2022/01/23 08:59:50;;;;;;;14.27;8.13;;;-2.60;99.90;;;;;;5065235;28;20051;-73
2022/01/23 09:02:17;;;;;;;13.68;7.07;;;-2.50;99.90;;;;;;5087797;28;20059;-74
2022/01/23 09:04:44;;;;;;;13.10;6.78;;;-2.50;99.90;;;;;;5072907;28;20044;-74
2022/01/23 09:07:10;;;;;;;14.10;6.47;;;-2.40;99.90;;;;;;5071275;28;20056;-73
2022/01/23 09:09:40;;;;;;;14.27;7.28;;;-2.40;99.90;;;;;;5050990;28;20071;-73
2022/01/23 09:12:28;;;;;;;14.85;6.75;;;-2.30;99.90;;;;;;5067369;28;20037;-73
2022/01/23 09:14:54;;;;;;;15.70;7.93;;;-2.30;99.90;;;;;;5052779;28;20017;-75
2022/01/23 09:17:20;;;;;;;13.07;6.97;;;-2.10;99.90;;;;;;5052004;28;20051;-73
2022/01/23 09:19:47;;;;;;;10.87;5.23;;;-2.00;99.90;;;;;;5066722;28;20033;-74
2022/01/23 09:22:14;;;;;;;14.52;7.10;;;-1.90;99.90;;;;;;5051785;28;20381;-75
2022/01/23 09:24:42;;;;;;;15.85;6.93;;;-1.80;99.90;;;;;;5052127;28;20459;-73
2022/01/23 09:27:13;;;;;;;17.00;7.15;;;-1.60;99.90;;;;;;5051834;28;20040;-74
2022/01/23 09:29:42;;;;;;;12.60;6.45;;;-1.30;99.90;;;;;;5051899;28;20037;-73
2022/01/23 09:32:13;;;;;;;12.40;7.00;;;-0.90;99.90;;;;;;5051326;28;20472;-74
2022/01/23 09:34:41;;;;;;;13.95;6.60;;;-0.70;99.90;;;;;;5051746;28;20036;-74
2022/01/23 09:37:09;;;;;;;12.40;6.93;;;-0.80;99.90;;;;;;5052086;28;20517;-73
2022/01/23 09:39:37;;;;;;;15.18;7.85;;;-0.90;99.90;;;;;;5051860;28;20358;-73
2022/01/23 09:42:10;;;;;;;13.98;6.70;;;-0.80;99.90;;;;;;5066809;28;20392;-74
2022/01/23 09:44:46;;;;;;;12.60;7.00;;;-0.80;99.90;;;;;;5086931;28;20211;-74
2022/01/23 09:47:14;;;;;;;11.33;6.80;;;-0.70;99.90;;;;;;5071520;28;20025;-74
2022/01/23 09:49:42;;;;;;;11.88;6.10;;;-0.60;99.90;;;;;;5086778;28;20048;-74
2022/01/23 09:52:10;;;;;;;11.85;6.18;;;-0.50;99.90;;;;;;5085739;28;20488;-74
2022/01/23 09:54:40;;;;;;;8.90;5.63;;;-0.40;99.90;;;;;;5087148;28;20071;-74
2022/01/23 09:57:08;;;;;;;14.68;5.20;;;-0.50;99.90;;;;;;5066802;28;20022;-75
2022/01/23 09:59:34;;;;;;;12.88;6.40;;;-0.60;99.90;;;;;;5051831;28;20484;-72
2022/01/23 10:02:03;;;;;;;12.23;6.32;;;-0.80;99.90;;;;;;5051406;28;20112;-73
2022/01/23 10:04:29;;;;;;;11.40;6.20;;;-0.90;99.90;;;;;;5051525;28;20033;-73
2022/01/23 10:06:56;;;;;;;10.40;5.22;;;-1.00;99.90;;;;;;5066602;28;20060;-73
2022/01/23 10:09:24;;;;;;;11.18;5.85;;;-1.10;99.90;;;;;;5051612;28;20095;-74
2022/01/23 10:11:50;;;;;;;10.93;5.75;;;-1.20;99.90;;;;;;5050932;28;20025;-74
2022/01/23 10:14:20;;;;;;;;;;;-1.30;99.90;;;;;;5051717;28;20094;-74
2022/01/23 10:16:47;;;;;;;9.80;5.07;;;-1.30;99.90;;;;;;5051159;28;19919;-74
2022/01/23 10:19:14;;;;;;;10.52;5.57;;;-1.20;99.90;;;;;;5051818;28;20109;-74
2022/01/23 10:21:43;;;;;;;9.93;5.05;;;-1.20;99.90;;;;;;5051093;28;20380;-74
2022/01/23 10:24:10;;;;;;;10.80;5.05;;;-1.20;99.90;;;;;;5066712;28;20033;-74
2022/01/23 10:26:46;;;;;;;10.95;5.07;;;-1.40;99.90;;;;;;5066621;28;20068;-73
2022/01/23 10:29:28;;;;;;;8.13;4.95;;;-1.50;99.90;;;;;;5051413;28;20029;-75
2022/01/23 10:32:03;;;;;;;8.43;4.10;;;-1.50;99.90;;;;;;5066335;28;20098;-73
2022/01/23 10:34:59;;;;;;;9.20;5.00;;;-1.50;99.90;;;;;;5051334;28;20096;-73
2022/01/23 10:37:33;;;;;;;9.50;4.68;;;-1.60;99.90;;;;;;5066245;28;20052;-73
2022/01/23 10:40:09;;;;;;;8.10;4.40;;;-1.50;99.90;;;;;;5070110;28;20035;-72
2022/01/23 10:48:35;;;;;;;6.05;3.40;;;-1.70;99.90;;;;;;5062575;28;20094;-72
2022/01/23 10:51:22;;;;;;;8.38;4.78;;;-1.80;99.90;;;;;;5054396;28;20562;-73
2022/01/23 10:54:09;;;;;;;7.90;4.07;;;-1.80;99.90;;;;;;5054028;28;20025;-72
2022/01/23 10:57:08;;;;;;;8.93;4.18;;;-1.80;99.90;;;;;;5069305;28;20090;-73
2022/01/23 10:59:47;;;;;;;7.97;4.65;;;-1.80;99.90;;;;;;5054710;28;20136;-72
2022/01/23 11:02:21;;;;;;;12.07;4.65;;;-1.80;99.90;;;;;;5054225;28;20025;-72
2022/01/23 11:04:52;;;;;;;11.57;4.78;;;-1.80;99.90;;;;;;5054278;28;20044;-72
2022/01/23 11:07:18;;;;;;;11.15;4.85;;;-1.70;99.90;;;;;;5054094;28;20510;-70
2022/01/23 11:09:44;;;;;;;11.30;4.85;;;-1.80;99.90;;;;;;5054647;28;20029;-71
2022/01/23 11:12:22;;;;;;;9.90;4.37;;;-1.80;99.90;;;;;;5053791;28;20087;-71
2022/01/23 11:17:58;;;;;;;8.35;4.43;;;-2.00;99.90;;;;;;5057740;28;20047;-71
2022/01/23 11:20:32;;;;;;;11.63;4.78;;;-2.00;99.90;;;;;;5074000;28;20548;-71
2022/01/23 11:23:16;;;;;;;10.15;5.25;;;-2.10;99.90;;;;;;5073972;28;20440;-73
2022/01/23 11:25:52;;;;;;;14.35;6.03;;;-2.20;99.90;;;;;;5074343;28;20055;-71
2022/01/23 11:28:19;;;;;;;12.52;5.68;;;-2.20;99.90;;;;;;5055278;28;20041;-72
2022/01/23 11:30:46;;;;;;;;;;;-2.30;99.90;;;;;;5069447;28;20087;-72
2022/01/23 11:33:17;;;;;;;11.82;6.05;;;-2.30;99.90;;;;;;5053700;28;20328;-72
2022/01/23 11:35:43;;;;;;;12.57;5.45;;;-2.20;99.90;;;;;;5058645;28;20032;-71
2022/01/23 11:38:13;;;;;;;11.70;5.68;;;-2.20;99.90;;;;;;5089073;28;20538;-71
2022/01/23 11:50:41;;;;;;;9.95;6.15;;;-2.10;99.90;;;;;;5072573;28;20059;-71
2022/01/23 11:54:41;;;;;;;12.10;5.40;;;-2.20;99.90;;;;;;5052996;28;20078;-71
2022/01/23 11:57:40;;;;;;;7.67;3.73;;;-2.30;99.90;;;;;;5052791;28;20028;-71
2022/01/23 12:00:07;;;;;;;10.90;5.15;;;-2.30;99.90;;;;;;5052909;28;20495;-71
2022/01/23 12:02:37;;;;;;;8.65;4.82;;;-2.30;99.90;;;;;;5054471;28;20031;-70
2022/01/23 12:05:16;;;;;;;9.60;4.90;;;-2.30;99.90;;;;;;5073575;28;20043;-70
2022/01/23 12:07:44;;;;;;;10.85;4.80;;;-2.30;99.90;;;;;;5088555;28;20143;-70
2022/01/23 12:10:30;;;;;;;11.80;5.68;;;-2.30;99.90;;;;;;5072728;28;20535;-70
2022/01/23 12:13:33;;;;;;;9.45;5.30;;;-2.30;99.90;;;;;;5056892;28;20033;-70
2022/01/23 12:18:43;;;;;;;10.02;5.57;;;-2.30;99.90;;;;;;5052957;28;20517;-70
2022/01/23 12:21:29;;;;;;;9.27;5.10;;;-2.30;99.90;;;;;;5052232;28;20037;-71
2022/01/23 12:24:00;;;;;;;9.07;4.50;;;-2.30;99.90;;;;;;5051632;28;20285;-69
2022/01/23 12:26:26;;;;;;;9.25;4.63;;;-2.40;99.90;;;;;;5052968;28;20032;-70
2022/01/23 12:28:52;;;;;;;11.77;5.28;;;-2.30;99.90;;;;;;5053266;28;20059;-70
2022/01/23 12:31:24;;;;;;;9.05;4.88;;;-2.30;99.90;;;;;;5052271;28;20377;-70
2022/01/23 12:33:56;;;;;;;12.48;5.43;;;-2.30;99.90;;;;;;5053170;28;20089;-70
2022/01/23 12:36:26;;;;;;;9.98;5.43;;;-2.20;99.90;;;;;;5052698;28;20092;-72
2022/01/23 12:38:57;;;;;;;9.85;5.05;;;-2.20;99.90;;;;;;5067553;28;20029;-71
2022/01/23 12:41:33;;;;;;;9.43;4.85;;;-2.10;99.90;;;;;;5052678;28;20362;-72
2022/01/23 12:44:04;;;;;;;11.02;5.18;;;-2.10;99.90;;;;;;5052925;28;20158;-71
2022/01/23 12:46:32;;;;;;;10.30;5.40;;;-2.00;99.90;;;;;;5067810;28;20067;-71
2022/01/23 12:49:14;;;;;;;11.48;5.30;;;-2.00;99.90;;;;;;5058695;28;20050;-71
2022/01/23 12:51:42;;;;;;;10.55;5.43;;;-2.00;99.90;;;;;;5072344;28;20063;-73
2022/01/23 12:54:12;;;;;;;12.40;6.18;;;-2.00;99.90;;;;;;5087858;28;20024;-69
2022/01/23 12:56:42;;;;;;;10.65;5.60;;;-1.90;99.90;;;;;;5072075;28;20403;-71
2022/01/23 12:59:11;;;;;;;13.70;6.18;;;-2.00;99.90;;;;;;5054032;28;20029;-70
2022/01/23 13:01:42;;;;;;;11.18;5.72;;;-2.00;99.90;;;;;;5052017;28;20100;-71
2022/01/23 13:04:08;;;;;;;13.27;5.85;;;-2.10;99.90;;;;;;5052477;28;20480;-70
2022/01/23 13:06:44;;;;;;;;;;;-2.20;99.90;;;;;;5056266;28;20028;-70
2022/01/23 13:09:49;;;;;;;12.38;6.10;;;-2.20;99.90;;;;;;5072586;28;19913;-72
2022/01/23 13:31:45;;;;;;;11.32;5.88;;;-2.50;99.90;;;;;;5070749;28;20488;-74
2022/01/23 13:34:27;;;;;;;10.95;6.15;;;-2.40;99.90;;;;;;5071413;28;20058;-74
2022/01/23 13:36:55;;;;;;;11.35;5.70;;;-2.30;99.90;;;;;;5071124;28;20025;-74
2022/01/23 13:39:23;;;;;;;16.65;6.95;;;-2.40;99.90;;;;;;5073538;28;20477;-73
2022/01/23 13:42:18;;;;;;;10.02;6.15;;;-2.40;99.90;;;;;;5050210;28;20025;-72
2022/01/23 13:53:13;;;;;;;10.90;6.15;;;-2.40;99.90;;;;;;5062529;28;20473;-74
2022/01/23 13:58:52;;;;;;;10.18;5.15;;;-2.50;99.90;;;;;;5051093;28;20503;-74
2022/01/23 14:03:50;;;;;;;10.30;5.20;;;-2.70;99.90;;;;;;5063527;28;20025;-75
2022/01/23 14:06:16;;;;;;;9.45;4.72;;;-2.50;99.90;;;;;;5070769;28;20036;-75
2022/01/23 14:08:41;;;;;;;10.13;5.10;;;-2.50;99.90;;;;;;5070489;28;20166;-74
2022/01/23 14:11:07;;;;;;;9.82;4.65;;;-2.60;99.90;;;;;;5085200;28;20514;-74
2022/01/23 14:13:33;;;;;;;12.25;5.90;;;-2.60;99.90;;;;;;5065365;28;20029;-74
2022/01/23 14:15:59;;;;;;;9.38;5.10;;;-2.70;99.90;;;;;;5050336;28;20139;-74
2022/01/23 14:18:30;;;;;;;10.30;5.40;;;-2.70;99.90;;;;;;5050183;28;20503;-75
2022/01/23 14:21:09;;;;;;;9.75;5.40;;;-2.70;99.90;;;;;;5049908;28;20039;-75
2022/01/23 14:23:36;;;;;;;8.75;4.78;;;-2.70;99.90;;;;;;5070401;28;20056;-74
2022/01/23 14:26:12;;;;;;;8.70;4.85;;;-2.80;99.90;;;;;;5070363;28;20024;-73
2022/01/23 14:28:46;;;;;;;11.77;4.60;;;-2.80;99.90;;;;;;5070128;28;20043;-74
2022/01/23 14:31:18;;;;;;;10.98;5.07;;;-2.80;99.90;;;;;;5078696;28;20292;-74
2022/01/23 14:33:48;;;;;;;11.00;5.75;;;-2.80;99.90;;;;;;5085651;28;20479;-74
2022/01/23 14:36:21;;;;;;;12.20;4.90;;;-2.80;99.90;;;;;;5070732;28;20498;-73
2022/01/23 14:38:56;;;;;;;12.13;5.95;;;-2.80;99.90;;;;;;5070036;28;20028;-73
2022/01/23 14:41:24;;;;;;;10.45;5.28;;;-2.80;99.90;;;;;;5052739;28;20112;-74
2022/01/23 14:43:49;;;;;;;10.45;5.45;;;-2.80;99.90;;;;;;5050724;28;20040;-73
2022/01/23 14:46:18;;;;;;;11.45;5.72;;;-2.70;99.90;;;;;;5049955;28;20041;-73
2022/01/23 14:48:48;;;;;;;8.82;5.15;;;-2.70;99.90;;;;;;5049822;28;20061;-73
2022/01/23 14:51:19;;;;;;;9.65;5.38;;;-2.70;99.90;;;;;;5050159;28;20021;-73
2022/01/23 14:53:46;;;;;;;9.05;5.50;;;-2.70;99.90;;;;;;5050269;28;20060;-73
2022/01/23 14:56:14;;;;;;;11.40;5.50;;;-2.80;99.90;;;;;;5065009;28;20057;-73
2022/01/23 14:58:41;;;;;;;12.23;5.97;;;-2.80;99.90;;;;;;5065577;28;20056;-74
2022/01/23 15:01:10;;;;;;;10.70;4.70;;;-2.80;99.90;;;;;;5049854;28;20040;-73
2022/01/23 15:03:36;;;;;;;12.18;5.85;;;-2.80;99.90;;;;;;5065051;28;20040;-74
2022/01/23 15:06:02;;;;;;;;;;;-2.80;99.90;;;;;;5065902;28;20048;-74
2022/01/23 15:08:29;;;;;;;10.38;4.95;;;-2.80;99.90;;;;;;5049905;28;19913;-73
2022/01/23 15:10:57;;;;;;;7.97;4.63;;;-2.80;99.90;;;;;;5078896;28;20020;-73
2022/01/23 15:13:25;;;;;;;13.60;5.55;;;-2.80;99.90;;;;;;5049777;28;20524;-73
2022/01/23 15:15:51;;;;;;;10.20;5.18;;;-2.80;99.90;;;;;;5049871;28;20032;-74
2022/01/23 15:18:17;;;;;;;9.88;5.50;;;-2.80;99.90;;;;;;5065143;28;20041;-73
2022/01/23 15:20:43;;;;;;;11.23;5.22;;;-2.80;99.90;;;;;;5049634;28;20036;-73
2022/01/23 15:23:10;;;;;;;9.88;5.25;;;-2.80;99.90;;;;;;5053597;28;20037;-74
2022/01/23 15:25:37;;;;;;;9.82;5.55;;;-2.80;99.90;;;;;;5053523;28;20033;-74
2022/01/23 15:28:03;;;;;;;;;;;-3.50;99.90;;;;;;5053678;28;20029;-74
2022/01/23 15:30:29;;;;;;;9.18;5.22;;;-2.90;99.90;;;;;;5072031;28;19918;-74
2022/01/23 15:32:56;;;;;;;12.85;5.97;;;-2.90;99.90;;;;;;5073111;28;20099;-74
2022/01/23 15:35:23;;;;;;;;;;;-2.90;99.90;;;;;;5089290;28;20043;-74
2022/01/23 15:37:49;;;;;;;11.52;5.60;;;-2.30;99.90;;;;;;5072510;28;20351;-73
2022/01/23 15:40:19;;;;;;;10.63;6.05;;;-2.90;99.90;;;;;;5073330;28;20048;-74
2022/01/23 15:42:46;;;;;;;10.50;6.05;;;-2.90;99.90;;;;;;5071769;28;20043;-73
2022/01/23 15:45:12;;;;;;;10.85;5.90;;;-2.90;99.90;;;;;;5073212;28;20138;-73
2022/01/23 15:47:39;;;;;;;11.48;5.35;;;-2.90;99.90;;;;;;5067623;28;20484;-72
2022/01/23 15:50:07;;;;;;;9.98;5.45;;;-2.90;99.90;;;;;;5068385;28;20051;-72
2022/01/23 15:52:34;;;;;;;8.65;4.45;;;-3.00;99.90;;;;;;5052722;28;20021;-73
2022/01/23 15:55:00;;;;;;;11.88;5.55;;;-3.00;99.90;;;;;;5053472;28;20025;-73
2022/01/23 15:57:26;;;;;;;;;;;-3.00;99.90;;;;;;5053081;28;20083;-73
2022/01/23 15:59:52;;;;;;;10.38;5.28;;;-3.00;99.90;;;;;;5053357;28;20406;-73
2022/01/23 16:02:18;;;;;;;12.80;5.97;;;-3.10;99.90;;;;;;5051255;28;20031;-73
2022/01/23 16:04:44;;;;;;;12.35;5.88;;;-3.10;99.90;;;;;;5052566;28;20044;-73
2022/01/23 16:07:18;;;;;;;9.52;4.95;;;-3.10;99.90;;;;;;5060070;28;20033;-73
2022/01/23 16:09:48;;;;;;;11.32;6.07;;;-3.00;99.90;;;;;;5088405;28;20035;-74
2022/01/23 16:12:15;;;;;;;10.23;5.28;;;-3.00;99.90;;;;;;5087606;28;20082;-74
2022/01/23 16:14:42;;;;;;;11.07;5.40;;;-3.00;99.90;;;;;;5072915;28;20496;-73
2022/01/23 16:17:08;;;;;;;10.65;5.68;;;-3.00;99.90;;;;;;5070273;28;20382;-73
2022/01/23 16:19:34;;;;;;;9.85;5.72;;;-3.10;99.90;;;;;;5067704;28;20041;-73
2022/01/23 16:22:00;;;;;;;11.30;5.68;;;-3.00;99.90;;;;;;5052263;28;20032;-73